Terminal Aerodrome Forecast
Issued by NWS

Home | Current Version | Previous Version | Text Only | Print | Product List | Glossary On
Versions: 1 2 3 4 5 6 7 8 9 10 11 12 13 14 15 16 17 18 19 20 21 22 23 24
935
FTUS46 KEKA 232351
TAFCEC
TAF
KCEC 232351Z 2400/2424 30007KT 3SM BR OVC003
      TEMPO 2400/2402 1SM BR OVC002
     FM240200 25005KT 1 1/2SM BR OVC003
     FM240600 VRB03KT 3/4SM BR OVC002
     FM241800 29008KT 3SM BR OVC004=

USA.gov is the U.S. government's official web portal to all federal, state and local government web resources and services.